sensor_id;sensor_type;location;lat;lon;timestamp;P1;durP1;ratioP1;P2;durP2;ratioP2
56037;SDS011;41907;47.848;9.000;2023-01-10T00:01:46;3.00;;;2.25;;
56037;SDS011;41907;47.848;9.000;2023-01-10T00:04:11;5.50;;;2.97;;
56037;SDS011;41907;47.848;9.000;2023-01-10T00:06:37;4.03;;;2.30;;
56037;SDS011;41907;47.848;9.000;2023-01-10T00:09:02;7.85;;;4.80;;
56037;SDS011;41907;47.848;9.000;2023-01-10T00:11:28;9.95;;;5.70;;
56037;SDS011;41907;47.848;9.000;2023-01-10T00:14:11;11.00;;;6.63;;
56037;SDS011;41907;47.848;9.000;2023-01-10T00:16:37;2.70;;;2.35;;
56037;SDS011;41907;47.848;9.000;2023-01-10T00:19:04;2.30;;;1.67;;
56037;SDS011;41907;47.848;9.000;2023-01-10T00:21:29;12.55;;;9.10;;
56037;SDS011;41907;47.848;9.000;2023-01-10T00:23:55;2.70;;;1.60;;
56037;SDS011;41907;47.848;9.000;2023-01-10T00:26:23;1.90;;;1.30;;
56037;SDS011;41907;47.848;9.000;2023-01-10T00:28:50;1.48;;;1.10;;
56037;SDS011;41907;47.848;9.000;2023-01-10T00:31:16;0.80;;;0.68;;
56037;SDS011;41907;47.848;9.000;2023-01-10T00:33:41;1.13;;;0.90;;
56037;SDS011;41907;47.848;9.000;2023-01-10T00:36:07;0.88;;;0.60;;
56037;SDS011;41907;47.848;9.000;2023-01-10T00:38:34;1.00;;;0.65;;
56037;SDS011;41907;47.848;9.000;2023-01-10T00:41:00;0.57;;;0.50;;
56037;SDS011;41907;47.848;9.000;2023-01-10T00:43:26;0.80;;;0.70;;
56037;SDS011;41907;47.848;9.000;2023-01-10T00:48:35;0.65;;;0.65;;
56037;SDS011;41907;47.848;9.000;2023-01-10T00:51:00;0.73;;;0.65;;
56037;SDS011;41907;47.848;9.000;2023-01-10T00:53:26;1.48;;;0.68;;
56037;SDS011;41907;47.848;9.000;2023-01-10T00:55:52;0.80;;;0.77;;
56037;SDS011;41907;47.848;9.000;2023-01-10T00:58:19;0.70;;;0.57;;
56037;SDS011;41907;47.848;9.000;2023-01-10T01:00:44;1.70;;;0.75;;
56037;SDS011;41907;47.848;9.000;2023-01-10T01:03:16;1.08;;;0.70;;
56037;SDS011;41907;47.848;9.000;2023-01-10T01:05:44;1.00;;;0.90;;
56037;SDS011;41907;47.848;9.000;2023-01-10T01:08:11;1.30;;;0.80;;
56037;SDS011;41907;47.848;9.000;2023-01-10T01:10:38;1.05;;;0.90;;
56037;SDS011;41907;47.848;9.000;2023-01-10T01:13:05;1.27;;;1.13;;
56037;SDS011;41907;47.848;9.000;2023-01-10T01:15:33;2.20;;;0.90;;
56037;SDS011;41907;47.848;9.000;2023-01-10T01:17:59;1.00;;;0.60;;
56037;SDS011;41907;47.848;9.000;2023-01-10T01:20:25;0.80;;;0.80;;
56037;SDS011;41907;47.848;9.000;2023-01-10T01:22:51;0.85;;;0.85;;
56037;SDS011;41907;47.848;9.000;2023-01-10T01:25:16;0.93;;;0.88;;
56037;SDS011;41907;47.848;9.000;2023-01-10T01:27:41;0.65;;;0.63;;
56037;SDS011;41907;47.848;9.000;2023-01-10T01:30:07;0.85;;;0.85;;
56037;SDS011;41907;47.848;9.000;2023-01-10T01:32:34;0.68;;;0.68;;
56037;SDS011;41907;47.848;9.000;2023-01-10T01:34:59;1.02;;;0.73;;
56037;SDS011;41907;47.848;9.000;2023-01-10T01:37:25;0.75;;;0.70;;
56037;SDS011;41907;47.848;9.000;2023-01-10T01:39:50;1.33;;;0.80;;
56037;SDS011;41907;47.848;9.000;2023-01-10T01:50:15;0.70;;;0.70;;
56037;SDS011;41907;47.848;9.000;2023-01-10T01:52:43;0.95;;;0.60;;
56037;SDS011;41907;47.848;9.000;2023-01-10T01:55:09;0.80;;;0.55;;
56037;SDS011;41907;47.848;9.000;2023-01-10T01:57:34;0.60;;;0.50;;
56037;SDS011;41907;47.848;9.000;2023-01-10T02:00:01;1.25;;;0.52;;
56037;SDS011;41907;47.848;9.000;2023-01-10T02:02:31;0.80;;;0.80;;
56037;SDS011;41907;47.848;9.000;2023-01-10T02:05:04;0.98;;;0.68;;
56037;SDS011;41907;47.848;9.000;2023-01-10T02:07:36;1.13;;;0.73;;
56037;SDS011;41907;47.848;9.000;2023-01-10T02:13:01;1.10;;;0.65;;
56037;SDS011;41907;47.848;9.000;2023-01-10T02:15:30;0.70;;;0.65;;
56037;SDS011;41907;47.848;9.000;2023-01-10T02:17:55;0.85;;;0.60;;
56037;SDS011;41907;47.848;9.000;2023-01-10T02:20:22;0.57;;;0.57;;
56037;SDS011;41907;47.848;9.000;2023-01-10T02:31:14;0.55;;;0.55;;
56037;SDS011;41907;47.848;9.000;2023-01-10T02:33:50;0.77;;;0.75;;
56037;SDS011;41907;47.848;9.000;2023-01-10T02:39:00;0.80;;;0.40;;
56037;SDS011;41907;47.848;9.000;2023-01-10T02:44:31;0.43;;;0.30;;
56037;SDS011;41907;47.848;9.000;2023-01-10T02:47:05;4.13;;;0.65;;
56037;SDS011;41907;47.848;9.000;2023-01-10T02:49:40;0.20;;;0.20;;
56037;SDS011;41907;47.848;9.000;2023-01-10T02:52:10;0.20;;;0.20;;
56037;SDS011;41907;47.848;9.000;2023-01-10T02:54:38;0.50;;;0.50;;
56037;SDS011;41907;47.848;9.000;2023-01-10T02:57:08;0.40;;;0.40;;
56037;SDS011;41907;47.848;9.000;2023-01-10T03:08:12;0.20;;;0.20;;
56037;SDS011;41907;47.848;9.000;2023-01-10T03:16:03;0.28;;;0.15;;
56037;SDS011;41907;47.848;9.000;2023-01-10T03:18:32;0.10;;;0.10;;
56037;SDS011;41907;47.848;9.000;2023-01-10T03:21:03;0.40;;;0.30;;
56037;SDS011;41907;47.848;9.000;2023-01-10T03:23:32;0.00;;;0.00;;
56037;SDS011;41907;47.848;9.000;2023-01-10T03:25:59;0.52;;;0.10;;
56037;SDS011;41907;47.848;9.000;2023-01-10T03:28:26;0.30;;;0.10;;
56037;SDS011;41907;47.848;9.000;2023-01-10T03:33:26;0.20;;;0.10;;
56037;SDS011;41907;47.848;9.000;2023-01-10T03:38:50;0.32;;;0.30;;
56037;SDS011;41907;47.848;9.000;2023-01-10T03:42:22;1.05;;;0.10;;
56037;SDS011;41907;47.848;9.000;2023-01-10T03:49:42;0.65;;;0.15;;
56037;SDS011;41907;47.848;9.000;2023-01-10T03:52:12;0.77;;;0.13;;
56037;SDS011;41907;47.848;9.000;2023-01-10T03:54:43;0.90;;;0.45;;
56037;SDS011;41907;47.848;9.000;2023-01-10T03:57:14;0.63;;;0.08;;
56037;SDS011;41907;47.848;9.000;2023-01-10T03:59:40;1.80;;;0.57;;
56037;SDS011;41907;47.848;9.000;2023-01-10T04:02:06;0.30;;;0.15;;
56037;SDS011;41907;47.848;9.000;2023-01-10T04:04:31;0.57;;;0.55;;
56037;SDS011;41907;47.848;9.000;2023-01-10T04:06:56;1.92;;;0.40;;
56037;SDS011;41907;47.848;9.000;2023-01-10T04:09:22;0.30;;;0.30;;
56037;SDS011;41907;47.848;9.000;2023-01-10T04:11:47;0.57;;;0.20;;
56037;SDS011;41907;47.848;9.000;2023-01-10T04:14:13;0.50;;;0.28;;
56037;SDS011;41907;47.848;9.000;2023-01-10T04:16:38;1.20;;;0.30;;
56037;SDS011;41907;47.848;9.000;2023-01-10T04:19:03;1.52;;;0.38;;
56037;SDS011;41907;47.848;9.000;2023-01-10T04:21:29;21.40;;;9.05;;
56037;SDS011;41907;47.848;9.000;2023-01-10T04:23:54;1.70;;;0.98;;
56037;SDS011;41907;47.848;9.000;2023-01-10T04:26:19;2.00;;;0.40;;
56037;SDS011;41907;47.848;9.000;2023-01-10T04:28:45;0.95;;;0.47;;
56037;SDS011;41907;47.848;9.000;2023-01-10T04:31:10;2.05;;;0.50;;
56037;SDS011;41907;47.848;9.000;2023-01-10T04:33:35;0.70;;;0.43;;
56037;SDS011;41907;47.848;9.000;2023-01-10T04:36:03;0.70;;;0.40;;
56037;SDS011;41907;47.848;9.000;2023-01-10T04:38:28;2.88;;;0.75;;
56037;SDS011;41907;47.848;9.000;2023-01-10T04:40:54;3.13;;;0.50;;
56037;SDS011;41907;47.848;9.000;2023-01-10T04:43:21;1.73;;;0.60;;
56037;SDS011;41907;47.848;9.000;2023-01-10T04:45:47;4.30;;;0.90;;
56037;SDS011;41907;47.848;9.000;2023-01-10T04:48:13;0.70;;;0.70;;
56037;SDS011;41907;47.848;9.000;2023-01-10T04:50:38;1.35;;;0.57;;
56037;SDS011;41907;47.848;9.000;2023-01-10T04:53:03;4.72;;;1.00;;
56037;SDS011;41907;47.848;9.000;2023-01-10T04:55:29;3.13;;;1.42;;
56037;SDS011;41907;47.848;9.000;2023-01-10T04:57:56;3.08;;;0.75;;
56037;SDS011;41907;47.848;9.000;2023-01-10T05:00:21;1.00;;;0.80;;
56037;SDS011;41907;47.848;9.000;2023-01-10T05:02:47;2.85;;;1.08;;
56037;SDS011;41907;47.848;9.000;2023-01-10T05:05:12;4.15;;;0.90;;
56037;SDS011;41907;47.848;9.000;2023-01-10T05:07:38;3.60;;;1.60;;
56037;SDS011;41907;47.848;9.000;2023-01-10T05:10:04;3.83;;;2.22;;
56037;SDS011;41907;47.848;9.000;2023-01-10T05:12:32;14.25;;;5.95;;
56037;SDS011;41907;47.848;9.000;2023-01-10T05:14:57;3.03;;;1.58;;
56037;SDS011;41907;47.848;9.000;2023-01-10T05:17:23;2.55;;;1.23;;
56037;SDS011;41907;47.848;9.000;2023-01-10T05:19:48;2.67;;;0.90;;
56037;SDS011;41907;47.848;9.000;2023-01-10T05:22:14;2.88;;;0.65;;
56037;SDS011;41907;47.848;9.000;2023-01-10T05:24:39;3.40;;;0.80;;
56037;SDS011;41907;47.848;9.000;2023-01-10T05:27:04;3.88;;;0.88;;
56037;SDS011;41907;47.848;9.000;2023-01-10T05:29:31;1.75;;;1.20;;
56037;SDS011;41907;47.848;9.000;2023-01-10T05:31:57;2.60;;;0.70;;
56037;SDS011;41907;47.848;9.000;2023-01-10T05:34:23;1.75;;;0.88;;
56037;SDS011;41907;47.848;9.000;2023-01-10T05:36:49;3.58;;;0.77;;
56037;SDS011;41907;47.848;9.000;2023-01-10T05:39:14;2.80;;;0.80;;
56037;SDS011;41907;47.848;9.000;2023-01-10T05:41:39;3.40;;;0.65;;
56037;SDS011;41907;47.848;9.000;2023-01-10T05:44:05;4.15;;;1.42;;
56037;SDS011;41907;47.848;9.000;2023-01-10T05:46:31;3.55;;;0.88;;
56037;SDS011;41907;47.848;9.000;2023-01-10T05:48:57;1.42;;;0.98;;
56037;SDS011;41907;47.848;9.000;2023-01-10T05:51:22;4.00;;;0.75;;
56037;SDS011;41907;47.848;9.000;2023-01-10T05:53:47;1.65;;;0.95;;
56037;SDS011;41907;47.848;9.000;2023-01-10T05:56:13;6.85;;;1.25;;
56037;SDS011;41907;47.848;9.000;2023-01-10T05:58:38;8.02;;;3.95;;
56037;SDS011;41907;47.848;9.000;2023-01-10T06:01:03;2.92;;;1.27;;
56037;SDS011;41907;47.848;9.000;2023-01-10T06:03:29;4.30;;;0.77;;
56037;SDS011;41907;47.848;9.000;2023-01-10T06:05:54;7.32;;;1.02;;
56037;SDS011;41907;47.848;9.000;2023-01-10T06:08:20;3.13;;;0.82;;
56037;SDS011;41907;47.848;9.000;2023-01-10T06:10:47;2.58;;;0.73;;
56037;SDS011;41907;47.848;9.000;2023-01-10T06:13:12;3.55;;;0.90;;
56037;SDS011;41907;47.848;9.000;2023-01-10T06:15:37;4.95;;;1.13;;
56037;SDS011;41907;47.848;9.000;2023-01-10T06:18:03;2.30;;;1.02;;
56037;SDS011;41907;47.848;9.000;2023-01-10T06:20:28;8.48;;;1.45;;
56037;SDS011;41907;47.848;9.000;2023-01-10T06:22:54;4.82;;;1.10;;
56037;SDS011;41907;47.848;9.000;2023-01-10T06:25:19;3.85;;;1.85;;
56037;SDS011;41907;47.848;9.000;2023-01-10T06:27:44;31.25;;;14.10;;
56037;SDS011;41907;47.848;9.000;2023-01-10T06:30:10;5.90;;;2.35;;
56037;SDS011;41907;47.848;9.000;2023-01-10T06:32:37;1.65;;;1.02;;
56037;SDS011;41907;47.848;9.000;2023-01-10T06:35:04;1.90;;;1.10;;
56037;SDS011;41907;47.848;9.000;2023-01-10T06:37:30;4.28;;;1.58;;
56037;SDS011;41907;47.848;9.000;2023-01-10T06:39:56;2.10;;;1.00;;
56037;SDS011;41907;47.848;9.000;2023-01-10T06:42:21;4.03;;;1.50;;
56037;SDS011;41907;47.848;9.000;2023-01-10T06:44:46;3.58;;;1.38;;
56037;SDS011;41907;47.848;9.000;2023-01-10T06:47:12;4.82;;;1.15;;
56037;SDS011;41907;47.848;9.000;2023-01-10T06:49:37;3.25;;;1.20;;
56037;SDS011;41907;47.848;9.000;2023-01-10T06:52:02;3.92;;;1.52;;
56037;SDS011;41907;47.848;9.000;2023-01-10T06:54:28;7.93;;;1.80;;
56037;SDS011;41907;47.848;9.000;2023-01-10T06:56:53;8.40;;;3.33;;
56037;SDS011;41907;47.848;9.000;2023-01-10T06:59:18;8.75;;;2.42;;
56037;SDS011;41907;47.848;9.000;2023-01-10T07:01:44;4.55;;;2.47;;
56037;SDS011;41907;47.848;9.000;2023-01-10T07:04:09;9.70;;;3.15;;
56037;SDS011;41907;47.848;9.000;2023-01-10T07:06:35;14.23;;;6.20;;
56037;SDS011;41907;47.848;9.000;2023-01-10T07:09:01;24.58;;;11.43;;
56037;SDS011;41907;47.848;9.000;2023-01-10T07:11:27;6.40;;;3.47;;
56037;SDS011;41907;47.848;9.000;2023-01-10T07:13:52;3.47;;;1.30;;
56037;SDS011;41907;47.848;9.000;2023-01-10T07:16:18;3.80;;;1.27;;
56037;SDS011;41907;47.848;9.000;2023-01-10T07:18:43;3.92;;;1.02;;
56037;SDS011;41907;47.848;9.000;2023-01-10T07:21:09;6.13;;;1.02;;
56037;SDS011;41907;47.848;9.000;2023-01-10T07:23:35;4.35;;;1.30;;
56037;SDS011;41907;47.848;9.000;2023-01-10T07:26:05;4.28;;;1.75;;
56037;SDS011;41907;47.848;9.000;2023-01-10T07:28:32;6.00;;;2.03;;
56037;SDS011;41907;47.848;9.000;2023-01-10T07:30:59;2.85;;;1.52;;
56037;SDS011;41907;47.848;9.000;2023-01-10T07:33:25;5.85;;;1.73;;
56037;SDS011;41907;47.848;9.000;2023-01-10T07:35:51;3.00;;;1.23;;
56037;SDS011;41907;47.848;9.000;2023-01-10T07:38:16;5.28;;;2.00;;
56037;SDS011;41907;47.848;9.000;2023-01-10T07:40:42;9.43;;;2.53;;
56037;SDS011;41907;47.848;9.000;2023-01-10T07:43:08;7.68;;;2.17;;
56037;SDS011;41907;47.848;9.000;2023-01-10T07:45:34;7.15;;;4.00;;
56037;SDS011;41907;47.848;9.000;2023-01-10T07:48:00;6.72;;;3.83;;
56037;SDS011;41907;47.848;9.000;2023-01-10T07:50:28;11.98;;;4.45;;
56037;SDS011;41907;47.848;9.000;2023-01-10T07:52:54;38.60;;;16.63;;
56037;SDS011;41907;47.848;9.000;2023-01-10T07:55:20;20.58;;;8.57;;
56037;SDS011;41907;47.848;9.000;2023-01-10T07:57:46;21.05;;;5.07;;
56037;SDS011;41907;47.848;9.000;2023-01-10T08:00:11;22.67;;;6.30;;
56037;SDS011;41907;47.848;9.000;2023-01-10T08:02:37;11.88;;;2.70;;
56037;SDS011;41907;47.848;9.000;2023-01-10T08:05:03;23.20;;;4.00;;
56037;SDS011;41907;47.848;9.000;2023-01-10T08:07:29;16.67;;;3.88;;
56037;SDS011;41907;47.848;9.000;2023-01-10T08:09:55;13.73;;;4.00;;
56037;SDS011;41907;47.848;9.000;2023-01-10T08:12:20;12.05;;;3.90;;
56037;SDS011;41907;47.848;9.000;2023-01-10T08:14:45;13.60;;;4.50;;
56037;SDS011;41907;47.848;9.000;2023-01-10T08:17:11;10.80;;;5.50;;
56037;SDS011;41907;47.848;9.000;2023-01-10T08:19:36;12.30;;;4.53;;
56037;SDS011;41907;47.848;9.000;2023-01-10T08:22:01;10.02;;;5.22;;
56037;SDS011;41907;47.848;9.000;2023-01-10T08:24:27;11.50;;;5.20;;
56037;SDS011;41907;47.848;9.000;2023-01-10T08:26:52;10.23;;;5.20;;
56037;SDS011;41907;47.848;9.000;2023-01-10T08:29:18;7.70;;;3.22;;
56037;SDS011;41907;47.848;9.000;2023-01-10T08:31:43;11.30;;;5.90;;
56037;SDS011;41907;47.848;9.000;2023-01-10T08:34:09;16.65;;;11.13;;
56037;SDS011;41907;47.848;9.000;2023-01-10T08:36:37;20.35;;;9.85;;
56037;SDS011;41907;47.848;9.000;2023-01-10T08:39:02;19.20;;;12.88;;
56037;SDS011;41907;47.848;9.000;2023-01-10T08:41:27;16.52;;;10.63;;
56037;SDS011;41907;47.848;9.000;2023-01-10T08:43:53;21.63;;;5.78;;
56037;SDS011;41907;47.848;9.000;2023-01-10T08:46:18;30.90;;;12.88;;
56037;SDS011;41907;47.848;9.000;2023-01-10T08:48:44;20.83;;;10.90;;
56037;SDS011;41907;47.848;9.000;2023-01-10T08:51:10;18.17;;;8.70;;
56037;SDS011;41907;47.848;9.000;2023-01-10T08:53:35;25.00;;;10.40;;
56037;SDS011;41907;47.848;9.000;2023-01-10T08:56:03;20.75;;;7.47;;
56037;SDS011;41907;47.848;9.000;2023-01-10T08:58:28;36.60;;;21.75;;
56037;SDS011;41907;47.848;9.000;2023-01-10T09:00:54;32.42;;;21.98;;
56037;SDS011;41907;47.848;9.000;2023-01-10T09:03:19;26.23;;;17.30;;
56037;SDS011;41907;47.848;9.000;2023-01-10T09:05:44;14.52;;;7.53;;
56037;SDS011;41907;47.848;9.000;2023-01-10T09:08:10;12.55;;;5.95;;
56037;SDS011;41907;47.848;9.000;2023-01-10T09:10:35;14.40;;;3.72;;
56037;SDS011;41907;47.848;9.000;2023-01-10T09:13:01;13.90;;;4.43;;
56037;SDS011;41907;47.848;9.000;2023-01-10T09:15:27;12.93;;;7.45;;
56037;SDS011;41907;47.848;9.000;2023-01-10T09:17:55;21.70;;;7.55;;
56037;SDS011;41907;47.848;9.000;2023-01-10T09:20:25;16.27;;;9.60;;
56037;SDS011;41907;47.848;9.000;2023-01-10T09:22:52;12.23;;;8.45;;
56037;SDS011;41907;47.848;9.000;2023-01-10T09:25:18;3.97;;;2.15;;
56037;SDS011;41907;47.848;9.000;2023-01-10T09:27:43;14.77;;;4.70;;
56037;SDS011;41907;47.848;9.000;2023-01-10T09:30:09;7.38;;;2.97;;
56037;SDS011;41907;47.848;9.000;2023-01-10T09:32:35;7.35;;;1.98;;
56037;SDS011;41907;47.848;9.000;2023-01-10T09:35:00;2.33;;;1.55;;
56037;SDS011;41907;47.848;9.000;2023-01-10T09:37:25;4.00;;;1.73;;
56037;SDS011;41907;47.848;9.000;2023-01-10T09:39:51;3.05;;;1.35;;
56037;SDS011;41907;47.848;9.000;2023-01-10T09:47:35;3.83;;;1.05;;
56037;SDS011;41907;47.848;9.000;2023-01-10T09:52:46;4.85;;;1.15;;
56037;SDS011;41907;47.848;9.000;2023-01-10T09:55:18;4.87;;;1.37;;
56037;SDS011;41907;47.848;9.000;2023-01-10T09:57:53;5.80;;;1.48;;
56037;SDS011;41907;47.848;9.000;2023-01-10T10:00:23;3.65;;;1.48;;
56037;SDS011;41907;47.848;9.000;2023-01-10T10:02:58;7.40;;;2.65;;
56037;SDS011;41907;47.848;9.000;2023-01-10T10:05:25;5.47;;;2.00;;
56037;SDS011;41907;47.848;9.000;2023-01-10T10:07:53;5.97;;;1.60;;
56037;SDS011;41907;47.848;9.000;2023-01-10T10:13:03;4.43;;;1.40;;
56037;SDS011;41907;47.848;9.000;2023-01-10T10:15:51;4.30;;;0.90;;
56037;SDS011;41907;47.848;9.000;2023-01-10T10:21:22;3.27;;;0.90;;
56037;SDS011;41907;47.848;9.000;2023-01-10T10:23:58;4.50;;;1.63;;
56037;SDS011;41907;47.848;9.000;2023-01-10T10:26:44;2.50;;;1.20;;
56037;SDS011;41907;47.848;9.000;2023-01-10T10:29:20;3.10;;;1.20;;
56037;SDS011;41907;47.848;9.000;2023-01-10T10:37:21;2.85;;;1.38;;
56037;SDS011;41907;47.848;9.000;2023-01-10T10:42:51;3.70;;;1.27;;
56037;SDS011;41907;47.848;9.000;2023-01-10T10:45:37;1.75;;;0.77;;
56037;SDS011;41907;47.848;9.000;2023-01-10T10:53:56;4.13;;;1.00;;
56037;SDS011;41907;47.848;9.000;2023-01-10T10:56:23;3.33;;;1.10;;
56037;SDS011;41907;47.848;9.000;2023-01-10T10:58:51;3.00;;;0.80;;
56037;SDS011;41907;47.848;9.000;2023-01-10T11:01:20;7.47;;;1.80;;
56037;SDS011;41907;47.848;9.000;2023-01-10T11:06:32;6.22;;;1.40;;
56037;SDS011;41907;47.848;9.000;2023-01-10T11:09:02;3.78;;;1.25;;
56037;SDS011;41907;47.848;9.000;2023-01-10T11:11:30;3.08;;;1.23;;
56037;SDS011;41907;47.848;9.000;2023-01-10T11:13:59;2.30;;;0.88;;
56037;SDS011;41907;47.848;9.000;2023-01-10T11:16:34;3.40;;;1.00;;
56037;SDS011;41907;47.848;9.000;2023-01-10T11:19:22;2.60;;;0.73;;
56037;SDS011;41907;47.848;9.000;2023-01-10T11:21:59;3.78;;;1.20;;
56037;SDS011;41907;47.848;9.000;2023-01-10T11:27:02;3.13;;;1.60;;
56037;SDS011;41907;47.848;9.000;2023-01-10T11:29:42;2.42;;;1.05;;
56037;SDS011;41907;47.848;9.000;2023-01-10T11:32:13;1.63;;;0.40;;
56037;SDS011;41907;47.848;9.000;2023-01-10T11:34:41;2.17;;;0.88;;
56037;SDS011;41907;47.848;9.000;2023-01-10T11:37:18;3.00;;;0.60;;
56037;SDS011;41907;47.848;9.000;2023-01-10T11:39:46;2.92;;;0.80;;
56037;SDS011;41907;47.848;9.000;2023-01-10T11:44:49;3.00;;;1.13;;
56037;SDS011;41907;47.848;9.000;2023-01-10T11:47:14;5.63;;;3.40;;
56037;SDS011;41907;47.848;9.000;2023-01-10T11:49:44;11.40;;;6.50;;
56037;SDS011;41907;47.848;9.000;2023-01-10T11:52:22;4.57;;;1.13;;
56037;SDS011;41907;47.848;9.000;2023-01-10T11:54:51;6.30;;;1.15;;
56037;SDS011;41907;47.848;9.000;2023-01-10T11:57:20;5.10;;;0.90;;
56037;SDS011;41907;47.848;9.000;2023-01-10T11:59:51;2.80;;;1.45;;
56037;SDS011;41907;47.848;9.000;2023-01-10T12:02:23;3.05;;;1.50;;
56037;SDS011;41907;47.848;9.000;2023-01-10T12:04:51;2.40;;;0.95;;
56037;SDS011;41907;47.848;9.000;2023-01-10T12:07:18;2.92;;;1.27;;
56037;SDS011;41907;47.848;9.000;2023-01-10T12:09:50;3.50;;;1.52;;
56037;SDS011;41907;47.848;9.000;2023-01-10T12:12:25;3.28;;;1.63;;
56037;SDS011;41907;47.848;9.000;2023-01-10T12:14:56;2.05;;;1.20;;
56037;SDS011;41907;47.848;9.000;2023-01-10T12:17:27;1.70;;;0.88;;
56037;SDS011;41907;47.848;9.000;2023-01-10T12:19:56;2.80;;;0.88;;
56037;SDS011;41907;47.848;9.000;2023-01-10T12:22:44;2.20;;;1.02;;
56037;SDS011;41907;47.848;9.000;2023-01-10T12:25:19;2.67;;;1.13;;
56037;SDS011;41907;47.848;9.000;2023-01-10T12:28:16;3.08;;;0.85;;
56037;SDS011;41907;47.848;9.000;2023-01-10T12:30:44;5.05;;;1.40;;
56037;SDS011;41907;47.848;9.000;2023-01-10T12:33:16;2.92;;;1.10;;
56037;SDS011;41907;47.848;9.000;2023-01-10T12:35:49;2.40;;;1.10;;
56037;SDS011;41907;47.848;9.000;2023-01-10T12:41:06;1.77;;;0.80;;
56037;SDS011;41907;47.848;9.000;2023-01-10T12:43:35;5.15;;;1.60;;
56037;SDS011;41907;47.848;9.000;2023-01-10T12:46:26;5.78;;;1.08;;
56037;SDS011;41907;47.848;9.000;2023-01-10T12:49:08;7.60;;;1.58;;
56037;SDS011;41907;47.848;9.000;2023-01-10T12:51:44;4.82;;;1.08;;
56037;SDS011;41907;47.848;9.000;2023-01-10T12:54:14;4.65;;;0.70;;
56037;SDS011;41907;47.848;9.000;2023-01-10T12:56:43;5.65;;;1.25;;
56037;SDS011;41907;47.848;9.000;2023-01-10T12:59:15;3.25;;;1.00;;
56037;SDS011;41907;47.848;9.000;2023-01-10T13:01:44;2.80;;;1.30;;
56037;SDS011;41907;47.848;9.000;2023-01-10T13:04:17;4.63;;;1.00;;
56037;SDS011;41907;47.848;9.000;2023-01-10T13:06:46;4.90;;;0.85;;
56037;SDS011;41907;47.848;9.000;2023-01-10T13:09:15;5.97;;;1.38;;
56037;SDS011;41907;47.848;9.000;2023-01-10T13:11:51;8.93;;;2.63;;
56037;SDS011;41907;47.848;9.000;2023-01-10T13:14:28;7.25;;;1.80;;
56037;SDS011;41907;47.848;9.000;2023-01-10T13:17:42;3.85;;;1.50;;
56037;SDS011;41907;47.848;9.000;2023-01-10T13:22:44;4.70;;;1.05;;
56037;SDS011;41907;47.848;9.000;2023-01-10T13:25:45;6.50;;;1.58;;
56037;SDS011;41907;47.848;9.000;2023-01-10T13:28:17;2.03;;;0.93;;
56037;SDS011;41907;47.848;9.000;2023-01-10T13:30:50;3.25;;;0.80;;
56037;SDS011;41907;47.848;9.000;2023-01-10T13:33:25;1.23;;;0.75;;
56037;SDS011;41907;47.848;9.000;2023-01-10T13:35:53;3.78;;;0.75;;
56037;SDS011;41907;47.848;9.000;2023-01-10T13:38:35;3.22;;;0.75;;
56037;SDS011;41907;47.848;9.000;2023-01-10T13:41:22;5.07;;;0.88;;
56037;SDS011;41907;47.848;9.000;2023-01-10T13:44:11;4.68;;;0.88;;
56037;SDS011;41907;47.848;9.000;2023-01-10T13:46:47;7.30;;;1.38;;
56037;SDS011;41907;47.848;9.000;2023-01-10T13:49:22;4.25;;;1.15;;
56037;SDS011;41907;47.848;9.000;2023-01-10T14:00:22;4.30;;;1.10;;
56037;SDS011;41907;47.848;9.000;2023-01-10T14:03:55;5.85;;;0.90;;
56037;SDS011;41907;47.848;9.000;2023-01-10T14:06:08;3.10;;;0.85;;
56037;SDS011;41907;47.848;9.000;2023-01-10T14:08:38;2.88;;;0.70;;
56037;SDS011;41907;47.848;9.000;2023-01-10T14:11:11;2.97;;;0.95;;
56037;SDS011;41907;47.848;9.000;2023-01-10T14:13:37;5.60;;;1.52;;
56037;SDS011;41907;47.848;9.000;2023-01-10T14:19:34;4.97;;;1.13;;
56037;SDS011;41907;47.848;9.000;2023-01-10T14:22:00;5.03;;;1.40;;
56037;SDS011;41907;47.848;9.000;2023-01-10T14:24:40;5.68;;;0.88;;
56037;SDS011;41907;47.848;9.000;2023-01-10T14:27:14;3.20;;;0.73;;
56037;SDS011;41907;47.848;9.000;2023-01-10T14:29:46;6.32;;;0.90;;
56037;SDS011;41907;47.848;9.000;2023-01-10T14:35:08;6.53;;;1.13;;
56037;SDS011;41907;47.848;9.000;2023-01-10T14:37:51;4.40;;;0.93;;
56037;SDS011;41907;47.848;9.000;2023-01-10T14:40:36;6.10;;;1.38;;
56037;SDS011;41907;47.848;9.000;2023-01-10T14:43:08;4.28;;;1.50;;
56037;SDS011;41907;47.848;9.000;2023-01-10T14:48:26;6.47;;;1.25;;
56037;SDS011;41907;47.848;9.000;2023-01-10T14:51:06;2.97;;;1.33;;
56037;SDS011;41907;47.848;9.000;2023-01-10T14:53:52;5.88;;;1.35;;
56037;SDS011;41907;47.848;9.000;2023-01-10T15:02:02;4.15;;;0.70;;
56037;SDS011;41907;47.848;9.000;2023-01-10T15:04:44;7.85;;;3.28;;
56037;SDS011;41907;47.848;9.000;2023-01-10T15:07:16;13.68;;;5.65;;
56037;SDS011;41907;47.848;9.000;2023-01-10T15:09:46;3.13;;;1.08;;
56037;SDS011;41907;47.848;9.000;2023-01-10T15:12:13;3.70;;;1.05;;
56037;SDS011;41907;47.848;9.000;2023-01-10T15:14:40;3.80;;;1.20;;
56037;SDS011;41907;47.848;9.000;2023-01-10T15:17:06;3.92;;;1.38;;
56037;SDS011;41907;47.848;9.000;2023-01-10T15:19:41;3.35;;;1.40;;
56037;SDS011;41907;47.848;9.000;2023-01-10T15:22:28;2.90;;;0.60;;
56037;SDS011;41907;47.848;9.000;2023-01-10T15:24:59;3.15;;;0.85;;
56037;SDS011;41907;47.848;9.000;2023-01-10T15:27:25;1.75;;;0.63;;
56037;SDS011;41907;47.848;9.000;2023-01-10T15:29:51;4.00;;;0.70;;
56037;SDS011;41907;47.848;9.000;2023-01-10T15:32:25;1.88;;;0.88;;
56037;SDS011;41907;47.848;9.000;2023-01-10T15:35:05;5.07;;;1.38;;
56037;SDS011;41907;47.848;9.000;2023-01-10T15:37:35;6.35;;;1.20;;
56037;SDS011;41907;47.848;9.000;2023-01-10T15:40:05;3.38;;;1.80;;
56037;SDS011;41907;47.848;9.000;2023-01-10T15:42:43;7.28;;;1.20;;
56037;SDS011;41907;47.848;9.000;2023-01-10T15:45:28;5.57;;;1.77;;
56037;SDS011;41907;47.848;9.000;2023-01-10T15:48:01;18.63;;;8.35;;
56037;SDS011;41907;47.848;9.000;2023-01-10T15:50:34;6.57;;;2.67;;
56037;SDS011;41907;47.848;9.000;2023-01-10T15:53:06;2.28;;;1.38;;
56037;SDS011;41907;47.848;9.000;2023-01-10T15:58:04;7.10;;;1.40;;
56037;SDS011;41907;47.848;9.000;2023-01-10T16:00:50;2.03;;;1.30;;
56037;SDS011;41907;47.848;9.000;2023-01-10T16:03:21;6.75;;;1.88;;
56037;SDS011;41907;47.848;9.000;2023-01-10T16:05:54;4.13;;;2.72;;
56037;SDS011;41907;47.848;9.000;2023-01-10T16:08:23;6.00;;;2.10;;
56037;SDS011;41907;47.848;9.000;2023-01-10T16:10:51;18.27;;;7.82;;
56037;SDS011;41907;47.848;9.000;2023-01-10T16:13:18;15.40;;;4.85;;
56037;SDS011;41907;47.848;9.000;2023-01-10T16:15:55;7.10;;;2.28;;
56037;SDS011;41907;47.848;9.000;2023-01-10T16:18:22;9.32;;;2.60;;
56037;SDS011;41907;47.848;9.000;2023-01-10T16:20:50;7.47;;;2.35;;
56037;SDS011;41907;47.848;9.000;2023-01-10T16:23:21;5.97;;;2.95;;
56037;SDS011;41907;47.848;9.000;2023-01-10T16:25:50;4.22;;;3.33;;
56037;SDS011;41907;47.848;9.000;2023-01-10T16:28:24;4.88;;;2.15;;
56037;SDS011;41907;47.848;9.000;2023-01-10T16:30:53;7.88;;;2.63;;
56037;SDS011;41907;47.848;9.000;2023-01-10T16:33:19;7.70;;;2.67;;
56037;SDS011;41907;47.848;9.000;2023-01-10T16:35:51;4.63;;;1.65;;
56037;SDS011;41907;47.848;9.000;2023-01-10T16:38:21;4.40;;;2.38;;
56037;SDS011;41907;47.848;9.000;2023-01-10T16:40:57;8.45;;;3.83;;
56037;SDS011;41907;47.848;9.000;2023-01-10T16:43:24;4.88;;;2.30;;
56037;SDS011;41907;47.848;9.000;2023-01-10T16:45:55;2.63;;;1.70;;
56037;SDS011;41907;47.848;9.000;2023-01-10T16:48:24;5.00;;;1.33;;
56037;SDS011;41907;47.848;9.000;2023-01-10T16:50:51;4.45;;;1.70;;
56037;SDS011;41907;47.848;9.000;2023-01-10T16:53:17;3.63;;;1.70;;
56037;SDS011;41907;47.848;9.000;2023-01-10T16:55:44;5.68;;;1.38;;
56037;SDS011;41907;47.848;9.000;2023-01-10T16:58:12;5.53;;;1.60;;